Time;durP1;ratioP1;P1;durP2;ratioP2;P2;SDS_P1;SDS_P2;PMS_P1;PMS_P2;Temp;Humidity;BMP_temperature;BMP_pressure;BME280_temperature;BME280_humidity;BME280_pressure;Samples;Min_cycle;Max_cycle;Signal;HPM_P1;HPM_P2
2023/10/27 00:11:40;;;;;;;16.58;12.60;;;;;;;22.00;61.50;98499.31;40244586;29;20120;-70
2023/10/27 00:31:41;;;;;;;15.65;11.35;;;;;;;22.05;61.13;98490.91;40261539;29;20057;-70
2023/10/27 00:51:41;;;;;;;14.05;11.15;;;;;;;22.03;61.38;98480.53;40260212;29;20046;-69
2023/10/27 01:11:42;;;;;;;12.98;10.77;;;;;;;22.02;61.23;98484.16;40262369;29;20064;-69
2023/10/27 01:52:41;;;;;;;11.15;8.98;;;;;;;21.95;61.63;98443.69;40248758;29;20467;-71
2023/10/27 02:12:41;;;;;;;10.02;8.75;;;;;;;21.94;61.80;98414.88;40251586;29;20594;-69
2023/10/27 02:32:42;;;;;;;10.20;8.30;;;;;;;21.95;61.54;98395.41;40256357;29;20113;-69
2023/10/27 02:52:42;;;;;;;8.20;7.15;;;;;;;21.91;61.75;98384.41;40254889;29;20132;-70
2023/10/27 03:12:42;;;;;;;9.25;7.10;;;;;;;21.89;61.56;98354.78;40250160;29;20052;-69
2023/10/27 03:32:43;;;;;;;8.43;6.80;;;;;;;21.86;61.81;98321.69;40246823;29;20041;-69
2023/10/27 03:52:44;;;;;;;7.63;6.25;;;;;;;21.82;61.80;98295.88;40241468;29;20053;-69
2023/10/27 04:12:44;;;;;;;8.57;6.50;;;;;;;21.94;62.15;98251.50;40245148;29;20137;-78
2023/10/27 04:32:45;;;;;;;9.88;6.80;;;;;;;21.99;62.44;98197.25;40260146;29;20072;-71
2023/10/27 04:52:46;;;;;;;11.50;6.10;;;;;;;22.00;62.77;98150.66;40248944;29;20683;-71
2023/10/27 05:12:48;;;;;;;13.48;5.53;;;;;;;21.98;62.94;98110.47;40250671;29;20053;-80
2023/10/27 05:32:49;;;;;;;7.57;4.70;;;;;;;21.81;62.88;98100.09;40284858;29;20050;-78
2023/10/27 05:52:49;;;;;;;24.55;7.20;;;;;;;21.82;62.20;98067.47;40262162;29;20056;-74
2023/10/27 06:12:50;;;;;;;45.67;9.98;;;;;;;21.99;61.56;98038.34;40253798;29;20073;-75
2023/10/27 06:32:50;;;;;;;33.75;10.13;;;;;;;21.99;61.48;97998.81;40238791;29;20108;-74
2023/10/27 06:52:51;;;;;;;26.42;7.68;;;;;;;21.89;61.22;97976.19;40242494;29;20077;-73
2023/10/27 07:12:51;;;;;;;24.60;6.95;;;;;;;21.62;61.10;97922.34;40235237;29;20118;-76
2023/10/27 07:32:52;;;;;;;22.35;6.95;;;;;;;21.96;60.59;97931.50;40125252;29;20088;-75
2023/10/27 07:52:52;;;;;;;19.08;5.50;;;;;;;22.04;60.51;97906.84;40146664;29;20800;-75
2023/10/27 08:12:52;;;;;;;16.23;5.53;;;;;;;21.98;60.66;97887.31;40131005;29;20106;-71
2023/10/27 08:32:53;;;;;;;12.30;5.40;;;;;;;21.92;60.40;97848.53;40200495;29;20049;-75
2023/10/27 08:52:53;;;;;;;10.82;5.10;;;;;;;21.72;60.63;97758.78;40287990;29;20510;-74
2023/10/27 09:12:57;;;;;;;11.18;5.05;;;;;;;21.91;59.85;97763.44;40277887;29;20084;-74
2023/10/27 09:33:14;;;;;;;9.60;5.38;;;;;;;21.91;59.76;97708.09;40247083;29;20053;-74
2023/10/27 09:53:15;;;;;;;10.77;5.25;;;;;;;21.77;59.49;97647.59;40276506;29;20050;-75
2023/10/27 10:13:17;;;;;;;9.05;4.95;;;;;;;22.00;59.48;97621.84;40271208;29;20041;-73
2023/10/27 10:33:22;;;;;;;8.57;5.10;;;;;;;21.98;59.16;97613.28;40280175;29;20113;-75
2023/10/27 10:53:26;;;;;;;7.57;4.88;;;;;;;21.73;59.19;97565.50;40272992;29;20057;-75
2023/10/27 11:13:27;;;;;;;8.27;4.90;;;;;;;21.78;59.87;97555.22;40273263;29;20472;-74
2023/10/27 11:33:28;;;;;;;7.55;4.60;;;;;;;21.82;60.16;97642.56;40257593;29;20120;-77
2023/10/27 11:53:30;;;;;;;7.55;4.43;;;;;;;21.71;60.80;97636.78;40262319;29;20100;-76
2023/10/27 12:13:30;;;;;;;9.15;4.15;;;;;;;21.80;60.75;97631.41;40259270;29;20046;-72
2023/10/27 12:33:30;;;;;;;6.28;4.13;;;;;;;21.84;61.83;97733.56;40280291;29;20053;-73
2023/10/27 12:53:32;;;;;;;6.70;3.90;;;;;;;21.86;61.51;97784.25;40281220;29;20041;-76
2023/10/27 13:13:34;;;;;;;4.75;3.30;;;;;;;22.03;61.25;97858.63;40234888;29;20053;-77
2023/10/27 13:33:35;;;;;;;5.38;3.20;;;;;;;21.90;62.31;97817.13;40272418;29;20056;-78
2023/10/27 13:53:37;;;;;;;5.18;2.83;;;;;;;21.96;62.09;97846.34;40291827;29;20049;-77
2023/10/27 14:13:37;;;;;;;8.27;2.90;;;;;;;22.39;61.06;97901.81;40289648;29;20064;-82
2023/10/27 14:33:39;;;;;;;7.13;2.53;;;;;;;22.36;61.25;97939.88;40284943;29;20145;-75
2023/10/27 14:53:40;;;;;;;5.35;2.80;;;;;;;22.22;61.69;97999.50;40265648;29;20167;-75
2023/10/27 15:13:41;;;;;;;7.35;2.80;;;;;;;21.90;60.58;98034.97;40264235;29;20078;-77
2023/10/27 15:33:42;;;;;;;10.30;2.30;;;;;;;21.93;60.96;98066.22;40284610;29;20137;-74
2023/10/27 15:53:46;;;;;;;7.57;2.50;;;;;;;22.10;60.60;98103.78;40310521;29;20056;-75
2023/10/27 16:13:46;;;;;;;13.25;6.25;;;;;;;22.50;62.44;98180.03;40277537;29;20105;-74
2023/10/27 16:33:48;;;;;;;11.10;5.90;;;;;;;22.77;62.08;98273.53;40269199;29;20078;-73
2023/10/27 16:53:49;;;;;;;10.15;5.13;;;;;;;22.62;61.69;98320.16;40282725;29;20041;-67
2023/10/27 17:13:50;;;;;;;8.02;4.30;;;;;;;22.48;62.03;98353.44;40267587;29;20050;-68
2023/10/27 17:33:52;;;;;;;25.27;4.25;;;;;;;22.46;62.35;98405.53;40238222;29;20490;-67
2023/10/27 17:53:54;;;;;;;9.57;3.50;;;;;;;22.38;62.25;98456.50;40226494;29;20041;-68
2023/10/27 18:13:57;;;;;;;7.18;3.10;;;;;;;22.30;62.28;98498.69;40256765;29;20049;-69
2023/10/27 18:33:59;;;;;;;4.40;2.85;;;;;;;22.14;62.05;98513.63;40250344;29;20050;-75
2023/10/27 18:54:00;;;;;;;5.10;2.47;;;;;;;22.31;62.37;98550.44;40246526;29;20045;-68
2023/10/27 19:14:01;;;;;;;5.43;2.60;;;;;;;22.15;61.91;98567.16;40232763;29;20034;-69
2023/10/27 19:34:04;;;;;;;3.45;2.08;;;;;;;22.15;61.05;98622.50;40259848;29;20045;-70
2023/10/27 19:54:06;;;;;;;3.95;1.90;;;;;;;22.04;60.83;98658.75;40246680;29;20050;-68
2023/10/27 20:14:07;;;;;;;4.35;2.00;;;;;;;22.04;61.02;98690.38;40245072;29;24117;-77
2023/10/27 20:34:08;;;;;;;4.50;2.10;;;;;;;22.01;60.64;98746.06;40254088;29;20091;-69
2023/10/27 20:54:09;;;;;;;2.22;1.60;;;;;;;21.91;61.17;98753.31;40255941;29;20045;-70
2023/10/27 21:14:09;;;;;;;2.30;1.88;;;;;;;21.94;61.57;98795.16;40263478;29;20104;-71
2023/10/27 21:34:15;;;;;;;2.65;1.70;;;;;;;21.91;61.27;98822.66;40245602;29;20095;-69
2023/10/27 21:54:16;;;;;;;2.33;1.60;;;;;;;21.90;61.31;98831.53;40252659;29;20048;-68
2023/10/27 22:14:16;;;;;;;2.20;1.30;;;;;;;21.87;61.34;98863.50;40251296;29;20065;-70
2023/10/27 22:34:17;;;;;;;1.92;1.30;;;;;;;21.85;61.80;98872.53;40249657;29;20164;-70
2023/10/27 22:54:19;;;;;;;1.48;1.20;;;;;;;21.76;61.27;98861.13;40243640;29;20068;-71
2023/10/27 23:14:22;;;;;;;1.52;1.20;;;;;;;21.78;61.38;98888.16;40256324;29;20056;-70
2023/10/27 23:34:23;;;;;;;1.70;1.25;;;;;;;21.77;61.57;98918.13;40248123;29;20049;-70
2023/10/27 23:54:24;;;;;;;1.55;1.08;;;;;;;;;;40250692;29;20041;-69
